sensor_id;sensor_type;location;lat;lon;timestamp;P1;durP1;ratioP1;P2;durP2;ratioP2
43511;SDS011;34054;52.100;5.116;2023-07-29T00:00:15;2.28;;;0.93;;
43511;SDS011;34054;52.100;5.116;2023-07-29T00:00:46;1.55;;;0.80;;
43511;SDS011;34054;52.100;5.116;2023-07-29T00:01:18;1.60;;;1.02;;
43511;SDS011;34054;52.100;5.116;2023-07-29T00:01:50;0.32;;;0.32;;
43511;SDS011;34054;52.100;5.116;2023-07-29T00:02:21;2.45;;;0.90;;
43511;SDS011;34054;52.100;5.116;2023-07-29T00:02:53;1.65;;;1.08;;
43511;SDS011;34054;52.100;5.116;2023-07-29T00:03:25;1.20;;;0.75;;
43511;SDS011;34054;52.100;5.116;2023-07-29T00:03:56;1.15;;;0.70;;
43511;SDS011;34054;52.100;5.116;2023-07-29T00:04:28;3.15;;;0.82;;
43511;SDS011;34054;52.100;5.116;2023-07-29T00:05:00;1.60;;;1.10;;
43511;SDS011;34054;52.100;5.116;2023-07-29T00:05:31;1.20;;;0.88;;
43511;SDS011;34054;52.100;5.116;2023-07-29T00:06:02;3.85;;;1.75;;
43511;SDS011;34054;52.100;5.116;2023-07-29T00:06:34;1.38;;;1.05;;
43511;SDS011;34054;52.100;5.116;2023-07-29T00:07:06;3.53;;;0.95;;
43511;SDS011;34054;52.100;5.116;2023-07-29T00:07:37;1.23;;;0.70;;
43511;SDS011;34054;52.100;5.116;2023-07-29T00:08:08;1.45;;;0.85;;
43511;SDS011;34054;52.100;5.116;2023-07-29T00:08:40;3.10;;;2.00;;
43511;SDS011;34054;52.100;5.116;2023-07-29T00:09:12;4.07;;;0.95;;
43511;SDS011;34054;52.100;5.116;2023-07-29T00:09:45;4.50;;;1.40;;
43511;SDS011;34054;52.100;5.116;2023-07-29T00:10:16;3.08;;;1.23;;
43511;SDS011;34054;52.100;5.116;2023-07-29T00:10:47;1.15;;;0.50;;
43511;SDS011;34054;52.100;5.116;2023-07-29T00:11:20;1.77;;;1.02;;
43511;SDS011;34054;52.100;5.116;2023-07-29T00:11:51;4.72;;;1.63;;
43511;SDS011;34054;52.100;5.116;2023-07-29T00:12:22;0.98;;;0.85;;
43511;SDS011;34054;52.100;5.116;2023-07-29T00:12:53;1.13;;;0.98;;
43511;SDS011;34054;52.100;5.116;2023-07-29T00:13:25;3.60;;;1.15;;
43511;SDS011;34054;52.100;5.116;2023-07-29T00:13:56;1.00;;;0.70;;
43511;SDS011;34054;52.100;5.116;2023-07-29T00:14:28;0.88;;;0.60;;
43511;SDS011;34054;52.100;5.116;2023-07-29T00:15:00;5.13;;;1.30;;
43511;SDS011;34054;52.100;5.116;2023-07-29T00:15:31;5.88;;;1.88;;
43511;SDS011;34054;52.100;5.116;2023-07-29T00:16:02;3.17;;;0.85;;
43511;SDS011;34054;52.100;5.116;2023-07-29T00:16:34;2.40;;;1.15;;
43511;SDS011;34054;52.100;5.116;2023-07-29T00:17:06;0.88;;;0.63;;
43511;SDS011;34054;52.100;5.116;2023-07-29T00:17:37;3.75;;;1.63;;
43511;SDS011;34054;52.100;5.116;2023-07-29T00:18:08;0.70;;;0.40;;
43511;SDS011;34054;52.100;5.116;2023-07-29T00:18:40;3.10;;;2.25;;
43511;SDS011;34054;52.100;5.116;2023-07-29T00:19:12;8.40;;;2.97;;
43511;SDS011;34054;52.100;5.116;2023-07-29T00:19:43;1.80;;;1.08;;
43511;SDS011;34054;52.100;5.116;2023-07-29T00:20:14;2.63;;;1.17;;
43511;SDS011;34054;52.100;5.116;2023-07-29T00:20:45;3.88;;;1.33;;
43511;SDS011;34054;52.100;5.116;2023-07-29T00:21:18;2.83;;;1.80;;
43511;SDS011;34054;52.100;5.116;2023-07-29T00:21:49;0.90;;;0.88;;
43511;SDS011;34054;52.100;5.116;2023-07-29T00:22:20;2.00;;;1.48;;
43511;SDS011;34054;52.100;5.116;2023-07-29T00:22:51;5.88;;;2.08;;
43511;SDS011;34054;52.100;5.116;2023-07-29T00:23:24;1.35;;;0.90;;
43511;SDS011;34054;52.100;5.116;2023-07-29T00:23:56;2.33;;;1.55;;
43511;SDS011;34054;52.100;5.116;2023-07-29T00:24:28;2.42;;;0.52;;
43511;SDS011;34054;52.100;5.116;2023-07-29T00:25:00;1.67;;;1.23;;
43511;SDS011;34054;52.100;5.116;2023-07-29T00:25:32;5.05;;;1.17;;
43511;SDS011;34054;52.100;5.116;2023-07-29T00:26:04;2.70;;;1.35;;
43511;SDS011;34054;52.100;5.116;2023-07-29T00:26:35;4.68;;;1.73;;
43511;SDS011;34054;52.100;5.116;2023-07-29T00:27:06;1.63;;;1.45;;
43511;SDS011;34054;52.100;5.116;2023-07-29T00:27:39;2.08;;;1.23;;
43511;SDS011;34054;52.100;5.116;2023-07-29T00:28:10;1.60;;;1.10;;
43511;SDS011;34054;52.100;5.116;2023-07-29T00:28:42;1.30;;;1.02;;
43511;SDS011;34054;52.100;5.116;2023-07-29T00:29:13;1.52;;;1.13;;
43511;SDS011;34054;52.100;5.116;2023-07-29T00:29:45;4.85;;;1.65;;
43511;SDS011;34054;52.100;5.116;2023-07-29T00:30:16;7.13;;;1.95;;
43511;SDS011;34054;52.100;5.116;2023-07-29T00:30:48;5.03;;;1.65;;
43511;SDS011;34054;52.100;5.116;2023-07-29T00:31:20;1.15;;;1.02;;
43511;SDS011;34054;52.100;5.116;2023-07-29T00:31:51;2.17;;;0.95;;
43511;SDS011;34054;52.100;5.116;2023-07-29T00:32:22;1.60;;;1.15;;
43511;SDS011;34054;52.100;5.116;2023-07-29T00:32:53;1.95;;;1.30;;
43511;SDS011;34054;52.100;5.116;2023-07-29T00:33:26;2.88;;;1.55;;
43511;SDS011;34054;52.100;5.116;2023-07-29T00:33:57;6.15;;;2.00;;
43511;SDS011;34054;52.100;5.116;2023-07-29T00:34:29;2.85;;;1.92;;
43511;SDS011;34054;52.100;5.116;2023-07-29T00:35:01;2.05;;;1.35;;
43511;SDS011;34054;52.100;5.116;2023-07-29T00:35:34;1.73;;;0.98;;
43511;SDS011;34054;52.100;5.116;2023-07-29T00:36:05;1.45;;;1.27;;
43511;SDS011;34054;52.100;5.116;2023-07-29T00:36:36;3.60;;;2.28;;
43511;SDS011;34054;52.100;5.116;2023-07-29T00:37:08;2.53;;;1.48;;
43511;SDS011;34054;52.100;5.116;2023-07-29T00:37:41;2.20;;;1.55;;
43511;SDS011;34054;52.100;5.116;2023-07-29T00:38:12;0.98;;;0.63;;
43511;SDS011;34054;52.100;5.116;2023-07-29T00:38:43;2.15;;;1.90;;
43511;SDS011;34054;52.100;5.116;2023-07-29T00:39:15;2.78;;;1.48;;
43511;SDS011;34054;52.100;5.116;2023-07-29T00:39:47;2.88;;;2.08;;
43511;SDS011;34054;52.100;5.116;2023-07-29T00:40:20;3.85;;;2.15;;
43511;SDS011;34054;52.100;5.116;2023-07-29T00:40:52;1.50;;;1.00;;
43511;SDS011;34054;52.100;5.116;2023-07-29T00:41:25;2.42;;;1.75;;
43511;SDS011;34054;52.100;5.116;2023-07-29T00:41:56;5.82;;;1.70;;
43511;SDS011;34054;52.100;5.116;2023-07-29T00:42:28;3.10;;;2.33;;
43511;SDS011;34054;52.100;5.116;2023-07-29T00:42:59;2.53;;;1.55;;
43511;SDS011;34054;52.100;5.116;2023-07-29T00:43:31;7.25;;;1.85;;
43511;SDS011;34054;52.100;5.116;2023-07-29T00:44:02;1.15;;;0.98;;
43511;SDS011;34054;52.100;5.116;2023-07-29T00:44:34;4.15;;;1.58;;
43511;SDS011;34054;52.100;5.116;2023-07-29T00:45:05;5.07;;;1.73;;
43511;SDS011;34054;52.100;5.116;2023-07-29T00:45:38;3.10;;;1.98;;
43511;SDS011;34054;52.100;5.116;2023-07-29T00:46:11;3.10;;;1.80;;
43511;SDS011;34054;52.100;5.116;2023-07-29T00:46:43;3.40;;;1.75;;
43511;SDS011;34054;52.100;5.116;2023-07-29T00:47:17;3.80;;;2.13;;
43511;SDS011;34054;52.100;5.116;2023-07-29T00:47:50;3.17;;;2.15;;
43511;SDS011;34054;52.100;5.116;2023-07-29T00:48:21;3.17;;;1.95;;
43511;SDS011;34054;52.100;5.116;2023-07-29T00:48:53;2.78;;;2.00;;
43511;SDS011;34054;52.100;5.116;2023-07-29T00:49:24;2.92;;;1.40;;
43511;SDS011;34054;52.100;5.116;2023-07-29T00:49:56;3.13;;;1.98;;
43511;SDS011;34054;52.100;5.116;2023-07-29T00:50:28;4.85;;;0.80;;
43511;SDS011;34054;52.100;5.116;2023-07-29T00:51:00;2.75;;;2.28;;
43511;SDS011;34054;52.100;5.116;2023-07-29T00:51:31;1.63;;;1.05;;
43511;SDS011;34054;52.100;5.116;2023-07-29T00:52:04;2.28;;;1.33;;
43511;SDS011;34054;52.100;5.116;2023-07-29T00:52:35;3.58;;;1.67;;
43511;SDS011;34054;52.100;5.116;2023-07-29T00:53:06;3.08;;;2.15;;
43511;SDS011;34054;52.100;5.116;2023-07-29T00:53:38;2.35;;;1.33;;
43511;SDS011;34054;52.100;5.116;2023-07-29T00:54:10;3.28;;;2.50;;
43511;SDS011;34054;52.100;5.116;2023-07-29T00:54:41;3.00;;;1.77;;
43511;SDS011;34054;52.100;5.116;2023-07-29T00:55:13;6.32;;;1.90;;
43511;SDS011;34054;52.100;5.116;2023-07-29T00:55:45;2.38;;;1.58;;
43511;SDS011;34054;52.100;5.116;2023-07-29T00:56:17;5.93;;;2.53;;
43511;SDS011;34054;52.100;5.116;2023-07-29T00:56:49;2.80;;;1.02;;
43511;SDS011;34054;52.100;5.116;2023-07-29T00:57:21;2.67;;;1.92;;
43511;SDS011;34054;52.100;5.116;2023-07-29T00:57:52;4.05;;;2.10;;
43511;SDS011;34054;52.100;5.116;2023-07-29T00:58:25;3.88;;;1.58;;
43511;SDS011;34054;52.100;5.116;2023-07-29T00:58:57;4.25;;;2.97;;
43511;SDS011;34054;52.100;5.116;2023-07-29T00:59:32;2.15;;;1.65;;
43511;SDS011;34054;52.100;5.116;2023-07-29T01:00:05;2.17;;;1.75;;
43511;SDS011;34054;52.100;5.116;2023-07-29T01:00:37;6.35;;;2.17;;
43511;SDS011;34054;52.100;5.116;2023-07-29T01:01:10;3.10;;;1.63;;
43511;SDS011;34054;52.100;5.116;2023-07-29T01:01:41;8.13;;;2.15;;
43511;SDS011;34054;52.100;5.116;2023-07-29T01:02:13;2.00;;;1.75;;
43511;SDS011;34054;52.100;5.116;2023-07-29T01:02:44;1.73;;;1.45;;
43511;SDS011;34054;52.100;5.116;2023-07-29T01:03:16;2.40;;;1.63;;
43511;SDS011;34054;52.100;5.116;2023-07-29T01:03:48;5.53;;;2.67;;
43511;SDS011;34054;52.100;5.116;2023-07-29T01:04:19;1.88;;;1.63;;
43511;SDS011;34054;52.100;5.116;2023-07-29T01:04:51;3.03;;;1.88;;
43511;SDS011;34054;52.100;5.116;2023-07-29T01:05:25;2.65;;;1.63;;
43511;SDS011;34054;52.100;5.116;2023-07-29T01:06:07;2.03;;;1.35;;
43511;SDS011;34054;52.100;5.116;2023-07-29T01:06:48;2.55;;;1.95;;
43511;SDS011;34054;52.100;5.116;2023-07-29T01:07:27;4.00;;;2.35;;
43511;SDS011;34054;52.100;5.116;2023-07-29T01:08:05;6.40;;;2.05;;
43511;SDS011;34054;52.100;5.116;2023-07-29T01:08:45;3.92;;;2.83;;
43511;SDS011;34054;52.100;5.116;2023-07-29T01:09:24;6.85;;;2.38;;
43511;SDS011;34054;52.100;5.116;2023-07-29T01:10:00;4.60;;;2.20;;
43511;SDS011;34054;52.100;5.116;2023-07-29T01:10:35;3.67;;;2.13;;
43511;SDS011;34054;52.100;5.116;2023-07-29T01:11:20;3.65;;;2.53;;
43511;SDS011;34054;52.100;5.116;2023-07-29T01:12:06;3.97;;;1.60;;
43511;SDS011;34054;52.100;5.116;2023-07-29T01:12:51;7.47;;;2.03;;
43511;SDS011;34054;52.100;5.116;2023-07-29T01:13:29;3.97;;;2.03;;
43511;SDS011;34054;52.100;5.116;2023-07-29T01:14:11;4.70;;;2.67;;
43511;SDS011;34054;52.100;5.116;2023-07-29T01:14:51;6.35;;;2.78;;
43511;SDS011;34054;52.100;5.116;2023-07-29T01:15:32;5.95;;;2.72;;
43511;SDS011;34054;52.100;5.116;2023-07-29T01:16:08;4.85;;;3.03;;
43511;SDS011;34054;52.100;5.116;2023-07-29T01:16:44;2.45;;;2.15;;
43511;SDS011;34054;52.100;5.116;2023-07-29T01:17:22;4.93;;;2.42;;
43511;SDS011;34054;52.100;5.116;2023-07-29T01:17:59;3.05;;;1.77;;
43511;SDS011;34054;52.100;5.116;2023-07-29T01:18:35;1.95;;;1.25;;
43511;SDS011;34054;52.100;5.116;2023-07-29T01:19:12;4.38;;;1.90;;
43511;SDS011;34054;52.100;5.116;2023-07-29T01:19:58;2.40;;;1.83;;
43511;SDS011;34054;52.100;5.116;2023-07-29T01:20:33;10.27;;;2.58;;
43511;SDS011;34054;52.100;5.116;2023-07-29T01:21:08;7.32;;;2.75;;
43511;SDS011;34054;52.100;5.116;2023-07-29T01:21:41;3.40;;;2.67;;
43511;SDS011;34054;52.100;5.116;2023-07-29T01:22:12;3.22;;;2.08;;
43511;SDS011;34054;52.100;5.116;2023-07-29T01:22:44;11.35;;;3.63;;
43511;SDS011;34054;52.100;5.116;2023-07-29T01:23:23;3.00;;;2.08;;
43511;SDS011;34054;52.100;5.116;2023-07-29T01:23:57;2.53;;;2.33;;
43511;SDS011;34054;52.100;5.116;2023-07-29T01:24:29;4.00;;;2.42;;
43511;SDS011;34054;52.100;5.116;2023-07-29T01:25:00;2.92;;;2.13;;
43511;SDS011;34054;52.100;5.116;2023-07-29T01:25:33;3.55;;;2.70;;
43511;SDS011;34054;52.100;5.116;2023-07-29T01:26:04;3.30;;;2.55;;
43511;SDS011;34054;52.100;5.116;2023-07-29T01:26:35;6.18;;;2.33;;
43511;SDS011;34054;52.100;5.116;2023-07-29T01:27:06;7.78;;;3.03;;
43511;SDS011;34054;52.100;5.116;2023-07-29T01:27:39;7.25;;;3.67;;
43511;SDS011;34054;52.100;5.116;2023-07-29T01:28:10;3.65;;;3.25;;
43511;SDS011;34054;52.100;5.116;2023-07-29T01:28:41;10.95;;;3.40;;
43511;SDS011;34054;52.100;5.116;2023-07-29T01:29:12;8.55;;;3.75;;
43511;SDS011;34054;52.100;5.116;2023-07-29T01:29:44;10.13;;;4.05;;
43511;SDS011;34054;52.100;5.116;2023-07-29T01:30:16;2.45;;;1.88;;
43511;SDS011;34054;52.100;5.116;2023-07-29T01:30:48;3.90;;;2.97;;
43511;SDS011;34054;52.100;5.116;2023-07-29T01:31:23;4.65;;;3.47;;
43511;SDS011;34054;52.100;5.116;2023-07-29T01:32:02;5.60;;;2.88;;
43511;SDS011;34054;52.100;5.116;2023-07-29T01:32:39;3.75;;;2.67;;
43511;SDS011;34054;52.100;5.116;2023-07-29T01:33:14;4.43;;;3.08;;
43511;SDS011;34054;52.100;5.116;2023-07-29T01:33:53;7.85;;;3.45;;
43511;SDS011;34054;52.100;5.116;2023-07-29T01:34:29;6.18;;;3.60;;
43511;SDS011;34054;52.100;5.116;2023-07-29T01:35:13;6.15;;;2.75;;
43511;SDS011;34054;52.100;5.116;2023-07-29T01:35:50;4.03;;;3.58;;
43511;SDS011;34054;52.100;5.116;2023-07-29T01:36:27;8.00;;;2.60;;
43511;SDS011;34054;52.100;5.116;2023-07-29T01:37:00;3.83;;;2.40;;
43511;SDS011;34054;52.100;5.116;2023-07-29T01:37:33;5.05;;;3.17;;
43511;SDS011;34054;52.100;5.116;2023-07-29T01:38:06;7.93;;;4.03;;
43511;SDS011;34054;52.100;5.116;2023-07-29T01:38:45;4.25;;;2.70;;
43511;SDS011;34054;52.100;5.116;2023-07-29T01:39:18;4.63;;;3.00;;
43511;SDS011;34054;52.100;5.116;2023-07-29T01:39:53;7.15;;;4.07;;
43511;SDS011;34054;52.100;5.116;2023-07-29T01:40:27;4.63;;;3.22;;
43511;SDS011;34054;52.100;5.116;2023-07-29T01:41:00;6.90;;;4.35;;
43511;SDS011;34054;52.100;5.116;2023-07-29T01:41:32;6.50;;;3.05;;
43511;SDS011;34054;52.100;5.116;2023-07-29T01:42:04;8.40;;;4.68;;
43511;SDS011;34054;52.100;5.116;2023-07-29T01:42:36;4.30;;;3.78;;
43511;SDS011;34054;52.100;5.116;2023-07-29T01:43:09;4.07;;;2.70;;
43511;SDS011;34054;52.100;5.116;2023-07-29T01:43:41;6.63;;;4.22;;
43511;SDS011;34054;52.100;5.116;2023-07-29T01:44:14;5.75;;;3.28;;
43511;SDS011;34054;52.100;5.116;2023-07-29T01:44:48;3.95;;;3.03;;
43511;SDS011;34054;52.100;5.116;2023-07-29T01:45:21;5.80;;;3.40;;
43511;SDS011;34054;52.100;5.116;2023-07-29T01:45:54;7.72;;;3.17;;
43511;SDS011;34054;52.100;5.116;2023-07-29T01:46:25;4.93;;;3.15;;
43511;SDS011;34054;52.100;5.116;2023-07-29T01:46:59;13.90;;;4.43;;
43511;SDS011;34054;52.100;5.116;2023-07-29T01:47:30;5.30;;;3.58;;
43511;SDS011;34054;52.100;5.116;2023-07-29T01:48:01;5.10;;;3.15;;
43511;SDS011;34054;52.100;5.116;2023-07-29T01:48:32;7.63;;;3.67;;
43511;SDS011;34054;52.100;5.116;2023-07-29T01:49:05;7.63;;;2.88;;
43511;SDS011;34054;52.100;5.116;2023-07-29T01:49:36;5.22;;;4.30;;
43511;SDS011;34054;52.100;5.116;2023-07-29T01:50:07;11.18;;;3.00;;
43511;SDS011;34054;52.100;5.116;2023-07-29T01:50:39;4.70;;;3.97;;
43511;SDS011;34054;52.100;5.116;2023-07-29T01:51:12;12.13;;;4.45;;
43511;SDS011;34054;52.100;5.116;2023-07-29T01:51:43;6.82;;;4.07;;
43511;SDS011;34054;52.100;5.116;2023-07-29T01:52:15;4.90;;;3.70;;
43511;SDS011;34054;52.100;5.116;2023-07-29T01:52:46;6.97;;;3.53;;
43511;SDS011;34054;52.100;5.116;2023-07-29T01:53:18;14.32;;;4.63;;
43511;SDS011;34054;52.100;5.116;2023-07-29T01:53:50;5.07;;;3.60;;
43511;SDS011;34054;52.100;5.116;2023-07-29T01:54:22;3.97;;;2.75;;
43511;SDS011;34054;52.100;5.116;2023-07-29T01:54:54;4.82;;;3.67;;
43511;SDS011;34054;52.100;5.116;2023-07-29T01:55:25;11.68;;;5.43;;
43511;SDS011;34054;52.100;5.116;2023-07-29T01:55:56;7.13;;;4.00;;
43511;SDS011;34054;52.100;5.116;2023-07-29T01:56:28;4.78;;;2.80;;
43511;SDS011;34054;52.100;5.116;2023-07-29T01:57:00;5.47;;;4.30;;
43511;SDS011;34054;52.100;5.116;2023-07-29T01:57:31;7.00;;;5.18;;
43511;SDS011;34054;52.100;5.116;2023-07-29T01:58:03;4.22;;;3.25;;
43511;SDS011;34054;52.100;5.116;2023-07-29T01:58:34;5.95;;;4.65;;
43511;SDS011;34054;52.100;5.116;2023-07-29T01:59:05;3.20;;;2.75;;
43511;SDS011;34054;52.100;5.116;2023-07-29T01:59:37;8.00;;;4.38;;
43511;SDS011;34054;52.100;5.116;2023-07-29T02:00:09;6.60;;;4.70;;
43511;SDS011;34054;52.100;5.116;2023-07-29T02:00:40;7.57;;;3.60;;
43511;SDS011;34054;52.100;5.116;2023-07-29T02:01:13;10.68;;;4.93;;
43511;SDS011;34054;52.100;5.116;2023-07-29T02:01:44;18.15;;;6.47;;
43511;SDS011;34054;52.100;5.116;2023-07-29T02:02:17;9.88;;;4.20;;
43511;SDS011;34054;52.100;5.116;2023-07-29T02:02:48;8.55;;;2.97;;
43511;SDS011;34054;52.100;5.116;2023-07-29T02:03:20;10.07;;;4.43;;
43511;SDS011;34054;52.100;5.116;2023-07-29T02:03:51;5.35;;;4.28;;
43511;SDS011;34054;52.100;5.116;2023-07-29T02:04:25;6.40;;;3.63;;
43511;SDS011;34054;52.100;5.116;2023-07-29T02:04:57;4.55;;;3.17;;
43511;SDS011;34054;52.100;5.116;2023-07-29T02:05:29;17.88;;;4.28;;
43511;SDS011;34054;52.100;5.116;2023-07-29T02:06:00;7.35;;;4.43;;
43511;SDS011;34054;52.100;5.116;2023-07-29T02:06:31;6.28;;;4.00;;
43511;SDS011;34054;52.100;5.116;2023-07-29T02:07:02;4.95;;;4.38;;
43511;SDS011;34054;52.100;5.116;2023-07-29T02:07:35;4.20;;;3.78;;
43511;SDS011;34054;52.100;5.116;2023-07-29T02:08:06;4.75;;;3.60;;
43511;SDS011;34054;52.100;5.116;2023-07-29T02:08:37;4.60;;;3.55;;
43511;SDS011;34054;52.100;5.116;2023-07-29T02:09:12;6.80;;;3.10;;
43511;SDS011;34054;52.100;5.116;2023-07-29T02:09:45;4.88;;;3.97;;
43511;SDS011;34054;52.100;5.116;2023-07-29T02:10:16;6.07;;;4.18;;
43511;SDS011;34054;52.100;5.116;2023-07-29T02:10:47;6.80;;;4.05;;
43511;SDS011;34054;52.100;5.116;2023-07-29T02:11:19;3.50;;;2.47;;
43511;SDS011;34054;52.100;5.116;2023-07-29T02:11:57;5.55;;;3.88;;
43511;SDS011;34054;52.100;5.116;2023-07-29T02:12:28;4.93;;;3.58;;
43511;SDS011;34054;52.100;5.116;2023-07-29T02:13:00;7.38;;;5.13;;
43511;SDS011;34054;52.100;5.116;2023-07-29T02:13:32;8.18;;;5.30;;
43511;SDS011;34054;52.100;5.116;2023-07-29T02:14:03;12.30;;;4.68;;
43511;SDS011;34054;52.100;5.116;2023-07-29T02:14:34;7.30;;;3.30;;
43511;SDS011;34054;52.100;5.116;2023-07-29T02:15:06;4.47;;;3.80;;
43511;SDS011;34054;52.100;5.116;2023-07-29T02:15:40;4.72;;;4.07;;
43511;SDS011;34054;52.100;5.116;2023-07-29T02:16:11;5.25;;;3.33;;
43511;SDS011;34054;52.100;5.116;2023-07-29T02:16:42;6.45;;;4.38;;
43511;SDS011;34054;52.100;5.116;2023-07-29T02:17:13;4.15;;;3.42;;
43511;SDS011;34054;52.100;5.116;2023-07-29T02:17:45;5.47;;;4.00;;
43511;SDS011;34054;52.100;5.116;2023-07-29T02:18:17;8.52;;;3.42;;
43511;SDS011;34054;52.100;5.116;2023-07-29T02:18:48;4.85;;;2.75;;
43511;SDS011;34054;52.100;5.116;2023-07-29T02:19:20;7.47;;;2.85;;
43511;SDS011;34054;52.100;5.116;2023-07-29T02:19:52;6.65;;;4.03;;
43511;SDS011;34054;52.100;5.116;2023-07-29T02:20:23;10.75;;;3.80;;
43511;SDS011;34054;52.100;5.116;2023-07-29T02:20:54;8.20;;;4.75;;
43511;SDS011;34054;52.100;5.116;2023-07-29T02:21:25;8.05;;;3.10;;
43511;SDS011;34054;52.100;5.116;2023-07-29T02:21:58;5.45;;;3.80;;
43511;SDS011;34054;52.100;5.116;2023-07-29T02:22:29;11.68;;;5.22;;
43511;SDS011;34054;52.100;5.116;2023-07-29T02:23:00;6.28;;;4.35;;
43511;SDS011;34054;52.100;5.116;2023-07-29T02:23:32;7.07;;;4.82;;
43511;SDS011;34054;52.100;5.116;2023-07-29T02:24:04;4.65;;;3.13;;
43511;SDS011;34054;52.100;5.116;2023-07-29T02:24:36;3.75;;;2.92;;
43511;SDS011;34054;52.100;5.116;2023-07-29T02:25:08;6.03;;;4.40;;
43511;SDS011;34054;52.100;5.116;2023-07-29T02:25:40;5.38;;;3.60;;
43511;SDS011;34054;52.100;5.116;2023-07-29T02:26:12;5.50;;;3.42;;
43511;SDS011;34054;52.100;5.116;2023-07-29T02:26:43;8.20;;;3.80;;
43511;SDS011;34054;52.100;5.116;2023-07-29T02:27:15;4.78;;;4.32;;
43511;SDS011;34054;52.100;5.116;2023-07-29T02:27:46;10.38;;;4.47;;
43511;SDS011;34054;52.100;5.116;2023-07-29T02:28:18;7.63;;;4.05;;
43511;SDS011;34054;52.100;5.116;2023-07-29T02:28:49;4.93;;;4.30;;
43511;SDS011;34054;52.100;5.116;2023-07-29T02:29:20;5.30;;;3.45;;
43511;SDS011;34054;52.100;5.116;2023-07-29T02:29:52;11.25;;;3.60;;
43511;SDS011;34054;52.100;5.116;2023-07-29T02:30:24;8.13;;;3.67;;
43511;SDS011;34054;52.100;5.116;2023-07-29T02:31:08;4.95;;;3.15;;
43511;SDS011;34054;52.100;5.116;2023-07-29T02:31:41;11.48;;;5.22;;
43511;SDS011;34054;52.100;5.116;2023-07-29T02:32:12;4.80;;;3.70;;
43511;SDS011;34054;52.100;5.116;2023-07-29T02:32:44;2.95;;;2.25;;
43511;SDS011;34054;52.100;5.116;2023-07-29T02:33:16;3.55;;;3.17;;
43511;SDS011;34054;52.100;5.116;2023-07-29T02:33:47;11.00;;;4.28;;
43511;SDS011;34054;52.100;5.116;2023-07-29T02:34:18;4.30;;;2.85;;
43511;SDS011;34054;52.100;5.116;2023-07-29T02:34:50;7.45;;;3.42;;
43511;SDS011;34054;52.100;5.116;2023-07-29T02:35:21;5.22;;;4.03;;
43511;SDS011;34054;52.100;5.116;2023-07-29T02:35:53;2.83;;;2.20;;
43511;SDS011;34054;52.100;5.116;2023-07-29T02:36:24;9.10;;;3.53;;
43511;SDS011;34054;52.100;5.116;2023-07-29T02:36:55;7.53;;;3.10;;
43511;SDS011;34054;52.100;5.116;2023-07-29T02:37:27;5.55;;;2.80;;
43511;SDS011;34054;52.100;5.116;2023-07-29T02:37:58;4.50;;;2.80;;
43511;SDS011;34054;52.100;5.116;2023-07-29T02:38:30;4.82;;;3.95;;
43511;SDS011;34054;52.100;5.116;2023-07-29T02:39:01;7.70;;;3.90;;
43511;SDS011;34054;52.100;5.116;2023-07-29T02:39:34;3.83;;;3.03;;
43511;SDS011;34054;52.100;5.116;2023-07-29T02:40:07;5.40;;;2.75;;
43511;SDS011;34054;52.100;5.116;2023-07-29T02:40:39;5.57;;;3.63;;
43511;SDS011;34054;52.100;5.116;2023-07-29T02:41:11;4.70;;;3.25;;
43511;SDS011;34054;52.100;5.116;2023-07-29T02:41:43;4.57;;;3.33;;
43511;SDS011;34054;52.100;5.116;2023-07-29T02:42:14;3.45;;;2.92;;
43511;SDS011;34054;52.100;5.116;2023-07-29T02:42:46;3.47;;;2.90;;
43511;SDS011;34054;52.100;5.116;2023-07-29T02:43:18;6.32;;;2.22;;
43511;SDS011;34054;52.100;5.116;2023-07-29T02:43:49;3.58;;;2.17;;
43511;SDS011;34054;52.100;5.116;2023-07-29T02:44:21;4.22;;;3.35;;
43511;SDS011;34054;52.100;5.116;2023-07-29T02:44:52;8.77;;;3.88;;
43511;SDS011;34054;52.100;5.116;2023-07-29T02:45:24;6.15;;;3.72;;
43511;SDS011;34054;52.100;5.116;2023-07-29T02:45:55;8.45;;;3.40;;
43511;SDS011;34054;52.100;5.116;2023-07-29T02:46:26;5.93;;;3.67;;
43511;SDS011;34054;52.100;5.116;2023-07-29T02:46:58;3.83;;;2.95;;
43511;SDS011;34054;52.100;5.116;2023-07-29T02:47:30;4.95;;;3.05;;
43511;SDS011;34054;52.100;5.116;2023-07-29T02:48:01;2.63;;;2.28;;
43511;SDS011;34054;52.100;5.116;2023-07-29T02:48:32;5.60;;;2.42;;
43511;SDS011;34054;52.100;5.116;2023-07-29T02:49:04;5.18;;;3.35;;
43511;SDS011;34054;52.100;5.116;2023-07-29T02:49:37;3.60;;;2.70;;
43511;SDS011;34054;52.100;5.116;2023-07-29T02:50:08;10.30;;;4.32;;
43511;SDS011;34054;52.100;5.116;2023-07-29T02:50:40;4.00;;;3.25;;
43511;SDS011;34054;52.100;5.116;2023-07-29T02:51:12;5.75;;;3.75;;
43511;SDS011;34054;52.100;5.116;2023-07-29T02:51:43;4.65;;;2.88;;
43511;SDS011;34054;52.100;5.116;2023-07-29T02:52:14;5.18;;;2.83;;
43511;SDS011;34054;52.100;5.116;2023-07-29T02:52:46;8.02;;;3.00;;
43511;SDS011;34054;52.100;5.116;2023-07-29T02:53:18;4.22;;;2.75;;
43511;SDS011;34054;52.100;5.116;2023-07-29T02:53:49;1.90;;;1.17;;
43511;SDS011;34054;52.100;5.116;2023-07-29T02:54:20;5.28;;;3.22;;
43511;SDS011;34054;52.100;5.116;2023-07-29T02:54:51;3.53;;;2.72;;
43511;SDS011;34054;52.100;5.116;2023-07-29T02:55:25;1.67;;;1.27;;
43511;SDS011;34054;52.100;5.116;2023-07-29T02:55:57;6.13;;;3.55;;
43511;SDS011;34054;52.100;5.116;2023-07-29T02:56:28;6.97;;;2.50;;
43511;SDS011;34054;52.100;5.116;2023-07-29T02:57:01;2.95;;;1.90;;
43511;SDS011;34054;52.100;5.116;2023-07-29T02:57:34;4.35;;;2.92;;
43511;SDS011;34054;52.100;5.116;2023-07-29T02:58:05;4.30;;;2.65;;
43511;SDS011;34054;52.100;5.116;2023-07-29T02:58:37;8.02;;;3.45;;
43511;SDS011;34054;52.100;5.116;2023-07-29T02:59:08;2.88;;;2.30;;
43511;SDS011;34054;52.100;5.116;2023-07-29T02:59:40;3.75;;;2.20;;
43511;SDS011;34054;52.100;5.116;2023-07-29T03:00:12;7.65;;;3.05;;
43511;SDS011;34054;52.100;5.116;2023-07-29T03:00:44;10.15;;;2.08;;
43511;SDS011;34054;52.100;5.116;2023-07-29T03:01:15;4.82;;;2.83;;
43511;SDS011;34054;52.100;5.116;2023-07-29T03:01:47;2.75;;;2.22;;
43511;SDS011;34054;52.100;5.116;2023-07-29T03:02:18;4.28;;;2.92;;
43511;SDS011;34054;52.100;5.116;2023-07-29T03:02:49;3.80;;;2.72;;
43511;SDS011;34054;52.100;5.116;2023-07-29T03:03:21;5.88;;;2.75;;
43511;SDS011;34054;52.100;5.116;2023-07-29T03:03:53;3.42;;;2.08;;
43511;SDS011;34054;52.100;5.116;2023-07-29T03:04:24;9.25;;;2.88;;
43511;SDS011;34054;52.100;5.116;2023-07-29T03:04:55;2.08;;;1.17;;
43511;SDS011;34054;52.100;5.116;2023-07-29T03:05:28;4.18;;;2.47;;
43511;SDS011;34054;52.100;5.116;2023-07-29T03:05:59;6.75;;;2.35;;
43511;SDS011;34054;52.100;5.116;2023-07-29T03:06:31;12.55;;;3.47;;
43511;SDS011;34054;52.100;5.116;2023-07-29T03:07:03;3.53;;;2.20;;
43511;SDS011;34054;52.100;5.116;2023-07-29T03:07:35;2.65;;;2.30;;
43511;SDS011;34054;52.100;5.116;2023-07-29T03:08:06;3.05;;;1.75;;
43511;SDS011;34054;52.100;5.116;2023-07-29T03:08:38;3.47;;;1.60;;
43511;SDS011;34054;52.100;5.116;2023-07-29T03:09:09;2.22;;;1.95;;
43511;SDS011;34054;52.100;5.116;2023-07-29T03:09:41;5.30;;;2.63;;
43511;SDS011;34054;52.100;5.116;2023-07-29T03:10:12;4.65;;;2.10;;
43511;SDS011;34054;52.100;5.116;2023-07-29T03:10:46;3.28;;;2.30;;
43511;SDS011;34054;52.100;5.116;2023-07-29T03:11:17;7.07;;;2.58;;
43511;SDS011;34054;52.100;5.116;2023-07-29T03:11:49;7.00;;;2.78;;
43511;SDS011;34054;52.100;5.116;2023-07-29T03:12:22;6.70;;;1.83;;
43511;SDS011;34054;52.100;5.116;2023-07-29T03:12:53;6.18;;;2.47;;
43511;SDS011;34054;52.100;5.116;2023-07-29T03:13:25;4.43;;;2.70;;
43511;SDS011;34054;52.100;5.116;2023-07-29T03:13:57;5.28;;;3.03;;
43511;SDS011;34054;52.100;5.116;2023-07-29T03:14:28;2.47;;;2.17;;
43511;SDS011;34054;52.100;5.116;2023-07-29T03:14:59;2.20;;;1.73;;
43511;SDS011;34054;52.100;5.116;2023-07-29T03:15:32;6.57;;;2.53;;
43511;SDS011;34054;52.100;5.116;2023-07-29T03:16:06;3.08;;;2.40;;